KEGV

Eagle River Union Airport

Eagle River, Wisconsin, USA
METAR KEGV 192255Z AUTO 00000KT 10SM CLR 24/13 A2998 RMK AO2 T02420126
Observed Flight Rules
Aug-19 @ 22:55 UTC (11 minutes ago) Visual Flight Rules
Visibility Clouds
10 miles
  • Clear skies
Temperatures Readings
Current 24°C / 75°F
Dewpoint 13°C / 55°F
Humidity 50%
Altimeter 29.98" Hg
Pressure 1015 hPa
Elevation 500
METAR KEGV 192255Z AUTO 00000KT 10SM CLR 24/13 A2998 RMK AO2 T02420126
Observed Flight Rules
Aug-19 @ 22:55 UTC
(11 minutes ago)
VFR
Clouds
  • Clear skies
Temperature Dewpoint
24°C / 75°F 13°C / 55°F
Humidity Altimeter Pressure
50% 29.98" Hg 1015 hPa